sensor_id;sensor_type;location;lat;lon;timestamp;P1;durP1;ratioP1;P2;durP2;ratioP2
57309;SDS011;43153;50.984;18.204;2023-06-10T00:02:00;26.50;;;13.70;;
57309;SDS011;43153;50.984;18.204;2023-06-10T00:04:30;25.00;;;13.80;;
57309;SDS011;43153;50.984;18.204;2023-06-10T00:06:55;24.90;;;14.10;;
57309;SDS011;43153;50.984;18.204;2023-06-10T00:09:23;24.30;;;13.80;;
57309;SDS011;43153;50.984;18.204;2023-06-10T00:11:52;20.20;;;13.90;;
57309;SDS011;43153;50.984;18.204;2023-06-10T00:14:18;23.20;;;14.20;;
57309;SDS011;43153;50.984;18.204;2023-06-10T00:16:52;24.60;;;14.80;;
57309;SDS011;43153;50.984;18.204;2023-06-10T00:19:21;24.00;;;14.60;;
57309;SDS011;43153;50.984;18.204;2023-06-10T00:21:56;22.00;;;14.90;;
57309;SDS011;43153;50.984;18.204;2023-06-10T00:24:27;25.60;;;14.40;;
57309;SDS011;43153;50.984;18.204;2023-06-10T00:26:58;22.40;;;14.90;;
57309;SDS011;43153;50.984;18.204;2023-06-10T00:29:31;22.70;;;14.80;;
57309;SDS011;43153;50.984;18.204;2023-06-10T00:32:05;23.90;;;14.50;;
57309;SDS011;43153;50.984;18.204;2023-06-10T00:34:35;26.60;;;15.30;;
57309;SDS011;43153;50.984;18.204;2023-06-10T00:37:07;20.90;;;14.40;;
57309;SDS011;43153;50.984;18.204;2023-06-10T00:39:38;24.20;;;15.60;;
57309;SDS011;43153;50.984;18.204;2023-06-10T00:42:09;25.70;;;14.60;;
57309;SDS011;43153;50.984;18.204;2023-06-10T00:44:36;22.70;;;13.90;;
57309;SDS011;43153;50.984;18.204;2023-06-10T00:47:02;25.20;;;15.80;;
57309;SDS011;43153;50.984;18.204;2023-06-10T00:49:28;25.10;;;15.20;;
57309;SDS011;43153;50.984;18.204;2023-06-10T00:51:54;22.20;;;14.90;;
57309;SDS011;43153;50.984;18.204;2023-06-10T00:54:21;22.10;;;15.40;;
57309;SDS011;43153;50.984;18.204;2023-06-10T00:56:52;23.60;;;15.00;;
57309;SDS011;43153;50.984;18.204;2023-06-10T00:59:24;23.40;;;15.60;;
57309;SDS011;43153;50.984;18.204;2023-06-10T01:01:59;27.20;;;15.00;;
57309;SDS011;43153;50.984;18.204;2023-06-10T01:04:27;23.70;;;15.10;;
57309;SDS011;43153;50.984;18.204;2023-06-10T01:12:47;27.00;;;16.30;;
57309;SDS011;43153;50.984;18.204;2023-06-10T01:15:22;25.90;;;16.80;;
57309;SDS011;43153;50.984;18.204;2023-06-10T01:17:55;30.30;;;16.10;;
57309;SDS011;43153;50.984;18.204;2023-06-10T01:20:24;28.10;;;16.10;;
57309;SDS011;43153;50.984;18.204;2023-06-10T01:22:53;24.00;;;16.20;;
57309;SDS011;43153;50.984;18.204;2023-06-10T01:25:20;26.40;;;15.90;;
57309;SDS011;43153;50.984;18.204;2023-06-10T01:28:02;24.70;;;16.90;;
57309;SDS011;43153;50.984;18.204;2023-06-10T01:30:30;24.30;;;16.90;;
57309;SDS011;43153;50.984;18.204;2023-06-10T01:33:02;27.30;;;17.40;;
57309;SDS011;43153;50.984;18.204;2023-06-10T01:35:34;23.30;;;15.90;;
57309;SDS011;43153;50.984;18.204;2023-06-10T01:38:08;26.60;;;16.20;;
57309;SDS011;43153;50.984;18.204;2023-06-10T01:40:35;27.50;;;17.10;;
57309;SDS011;43153;50.984;18.204;2023-06-10T01:43:04;25.40;;;16.50;;
57309;SDS011;43153;50.984;18.204;2023-06-10T01:45:29;24.30;;;16.50;;
57309;SDS011;43153;50.984;18.204;2023-06-10T01:47:57;25.80;;;15.70;;
57309;SDS011;43153;50.984;18.204;2023-06-10T01:50:23;26.50;;;16.60;;
57309;SDS011;43153;50.984;18.204;2023-06-10T01:52:49;25.20;;;15.20;;
57309;SDS011;43153;50.984;18.204;2023-06-10T01:55:15;23.70;;;15.70;;
57309;SDS011;43153;50.984;18.204;2023-06-10T01:57:41;26.60;;;16.90;;
57309;SDS011;43153;50.984;18.204;2023-06-10T02:00:08;24.80;;;16.20;;
57309;SDS011;43153;50.984;18.204;2023-06-10T02:02:35;24.70;;;16.70;;
57309;SDS011;43153;50.984;18.204;2023-06-10T02:05:01;24.50;;;16.00;;
57309;SDS011;43153;50.984;18.204;2023-06-10T02:07:29;24.00;;;16.50;;
57309;SDS011;43153;50.984;18.204;2023-06-10T02:10:01;23.10;;;16.00;;
57309;SDS011;43153;50.984;18.204;2023-06-10T02:12:28;25.40;;;17.00;;
57309;SDS011;43153;50.984;18.204;2023-06-10T02:14:58;22.90;;;15.50;;
57309;SDS011;43153;50.984;18.204;2023-06-10T02:17:30;24.00;;;16.00;;
57309;SDS011;43153;50.984;18.204;2023-06-10T02:19:59;28.00;;;16.00;;
57309;SDS011;43153;50.984;18.204;2023-06-10T02:22:29;21.90;;;14.90;;
57309;SDS011;43153;50.984;18.204;2023-06-10T03:04:12;27.00;;;16.30;;
57309;SDS011;43153;50.984;18.204;2023-06-10T03:06:42;24.30;;;16.40;;
57309;SDS011;43153;50.984;18.204;2023-06-10T03:09:10;26.40;;;16.00;;
57309;SDS011;43153;50.984;18.204;2023-06-10T03:11:39;23.40;;;16.10;;
57309;SDS011;43153;50.984;18.204;2023-06-10T03:14:13;23.30;;;16.00;;
57309;SDS011;43153;50.984;18.204;2023-06-10T03:16:43;28.90;;;15.90;;
57309;SDS011;43153;50.984;18.204;2023-06-10T03:19:14;24.30;;;15.30;;
57309;SDS011;43153;50.984;18.204;2023-06-10T03:21:44;25.50;;;14.80;;
57309;SDS011;43153;50.984;18.204;2023-06-10T03:24:12;21.40;;;14.70;;
57309;SDS011;43153;50.984;18.204;2023-06-10T03:26:45;21.40;;;14.50;;
57309;SDS011;43153;50.984;18.204;2023-06-10T03:31:42;25.90;;;14.60;;
57309;SDS011;43153;50.984;18.204;2023-06-10T03:34:13;26.80;;;14.90;;
57309;SDS011;43153;50.984;18.204;2023-06-10T03:36:46;20.60;;;13.10;;
57309;SDS011;43153;50.984;18.204;2023-06-10T03:39:16;19.20;;;12.70;;
57309;SDS011;43153;50.984;18.204;2023-06-10T03:41:45;20.50;;;12.80;;
57309;SDS011;43153;50.984;18.204;2023-06-10T03:44:24;23.30;;;14.10;;
57309;SDS011;43153;50.984;18.204;2023-06-10T03:46:52;19.80;;;13.20;;
57309;SDS011;43153;50.984;18.204;2023-06-10T03:49:18;23.40;;;12.60;;
57309;SDS011;43153;50.984;18.204;2023-06-10T03:51:45;21.80;;;12.60;;
57309;SDS011;43153;50.984;18.204;2023-06-10T03:54:13;17.90;;;11.80;;
57309;SDS011;43153;50.984;18.204;2023-06-10T03:56:41;18.60;;;12.10;;
57309;SDS011;43153;50.984;18.204;2023-06-10T03:59:29;17.40;;;10.90;;
57309;SDS011;43153;50.984;18.204;2023-06-10T04:01:57;26.50;;;14.00;;
57309;SDS011;43153;50.984;18.204;2023-06-10T04:04:30;22.80;;;12.90;;
57309;SDS011;43153;50.984;18.204;2023-06-10T04:06:58;21.40;;;12.40;;
57309;SDS011;43153;50.984;18.204;2023-06-10T04:09:24;20.30;;;12.10;;
57309;SDS011;43153;50.984;18.204;2023-06-10T04:11:50;19.20;;;11.00;;
57309;SDS011;43153;50.984;18.204;2023-06-10T04:14:16;22.90;;;11.70;;
57309;SDS011;43153;50.984;18.204;2023-06-10T04:16:46;22.30;;;11.50;;
57309;SDS011;43153;50.984;18.204;2023-06-10T04:19:12;19.30;;;11.30;;
57309;SDS011;43153;50.984;18.204;2023-06-10T04:21:39;18.70;;;11.60;;
57309;SDS011;43153;50.984;18.204;2023-06-10T04:24:05;17.20;;;11.50;;
57309;SDS011;43153;50.984;18.204;2023-06-10T04:26:34;15.40;;;11.30;;
57309;SDS011;43153;50.984;18.204;2023-06-10T04:31:30;21.50;;;11.00;;
57309;SDS011;43153;50.984;18.204;2023-06-10T04:33:58;17.30;;;11.50;;
57309;SDS011;43153;50.984;18.204;2023-06-10T04:36:26;17.70;;;10.60;;
57309;SDS011;43153;50.984;18.204;2023-06-10T04:38:56;19.20;;;10.90;;
57309;SDS011;43153;50.984;18.204;2023-06-10T04:41:22;18.20;;;12.00;;
57309;SDS011;43153;50.984;18.204;2023-06-10T04:43:50;21.30;;;12.60;;
57309;SDS011;43153;50.984;18.204;2023-06-10T04:46:17;19.40;;;10.40;;
57309;SDS011;43153;50.984;18.204;2023-06-10T04:48:43;16.60;;;10.70;;
57309;SDS011;43153;50.984;18.204;2023-06-10T04:51:28;22.30;;;12.00;;
57309;SDS011;43153;50.984;18.204;2023-06-10T04:53:54;17.50;;;10.80;;
57309;SDS011;43153;50.984;18.204;2023-06-10T04:56:20;17.00;;;11.60;;
57309;SDS011;43153;50.984;18.204;2023-06-10T04:58:46;17.80;;;11.10;;
57309;SDS011;43153;50.984;18.204;2023-06-10T05:01:14;16.70;;;11.10;;
57309;SDS011;43153;50.984;18.204;2023-06-10T05:03:41;19.20;;;11.50;;
57309;SDS011;43153;50.984;18.204;2023-06-10T05:06:09;16.80;;;11.10;;
57309;SDS011;43153;50.984;18.204;2023-06-10T05:08:35;19.60;;;12.10;;
57309;SDS011;43153;50.984;18.204;2023-06-10T05:11:01;15.40;;;10.40;;
57309;SDS011;43153;50.984;18.204;2023-06-10T05:13:27;18.00;;;11.10;;
57309;SDS011;43153;50.984;18.204;2023-06-10T05:15:54;15.00;;;9.60;;
57309;SDS011;43153;50.984;18.204;2023-06-10T05:18:20;17.80;;;9.00;;
57309;SDS011;43153;50.984;18.204;2023-06-10T05:20:47;16.50;;;10.50;;
57309;SDS011;43153;50.984;18.204;2023-06-10T05:23:16;16.00;;;10.10;;
57309;SDS011;43153;50.984;18.204;2023-06-10T05:25:41;14.10;;;8.90;;
57309;SDS011;43153;50.984;18.204;2023-06-10T05:28:11;14.50;;;8.50;;
57309;SDS011;43153;50.984;18.204;2023-06-10T05:30:37;18.00;;;8.80;;
57309;SDS011;43153;50.984;18.204;2023-06-10T05:33:03;14.40;;;8.70;;
57309;SDS011;43153;50.984;18.204;2023-06-10T05:35:30;16.80;;;8.70;;
57309;SDS011;43153;50.984;18.204;2023-06-10T05:37:59;14.70;;;8.50;;
57309;SDS011;43153;50.984;18.204;2023-06-10T05:40:27;16.30;;;8.40;;
57309;SDS011;43153;50.984;18.204;2023-06-10T05:42:55;12.60;;;8.40;;
57309;SDS011;43153;50.984;18.204;2023-06-10T05:45:23;14.00;;;8.50;;
57309;SDS011;43153;50.984;18.204;2023-06-10T05:47:55;11.50;;;7.40;;
57309;SDS011;43153;50.984;18.204;2023-06-10T05:50:21;10.90;;;7.00;;
57309;SDS011;43153;50.984;18.204;2023-06-10T05:52:50;13.20;;;7.60;;
57309;SDS011;43153;50.984;18.204;2023-06-10T05:55:20;17.50;;;7.60;;
57309;SDS011;43153;50.984;18.204;2023-06-10T05:57:47;14.20;;;7.90;;
57309;SDS011;43153;50.984;18.204;2023-06-10T06:00:13;10.80;;;7.10;;
57309;SDS011;43153;50.984;18.204;2023-06-10T06:02:40;12.70;;;6.30;;
57309;SDS011;43153;50.984;18.204;2023-06-10T06:05:07;12.30;;;7.20;;
57309;SDS011;43153;50.984;18.204;2023-06-10T06:07:33;13.30;;;8.10;;
57309;SDS011;43153;50.984;18.204;2023-06-10T06:10:08;14.20;;;6.90;;
57309;SDS011;43153;50.984;18.204;2023-06-10T06:12:35;11.40;;;7.00;;
57309;SDS011;43153;50.984;18.204;2023-06-10T06:15:03;13.40;;;6.90;;
57309;SDS011;43153;50.984;18.204;2023-06-10T06:17:29;11.50;;;7.20;;
57309;SDS011;43153;50.984;18.204;2023-06-10T06:20:01;12.30;;;6.70;;
57309;SDS011;43153;50.984;18.204;2023-06-10T06:22:29;14.00;;;7.60;;
57309;SDS011;43153;50.984;18.204;2023-06-10T06:24:55;13.10;;;8.10;;
57309;SDS011;43153;50.984;18.204;2023-06-10T06:27:25;12.30;;;7.50;;
57309;SDS011;43153;50.984;18.204;2023-06-10T06:29:52;12.50;;;7.20;;
57309;SDS011;43153;50.984;18.204;2023-06-10T06:32:22;11.50;;;7.50;;
57309;SDS011;43153;50.984;18.204;2023-06-10T06:34:54;14.40;;;7.70;;
57309;SDS011;43153;50.984;18.204;2023-06-10T06:37:23;14.30;;;7.80;;
57309;SDS011;43153;50.984;18.204;2023-06-10T06:39:53;12.30;;;7.70;;
57309;SDS011;43153;50.984;18.204;2023-06-10T06:42:24;13.80;;;7.20;;
57309;SDS011;43153;50.984;18.204;2023-06-10T06:44:52;12.60;;;6.70;;
57309;SDS011;43153;50.984;18.204;2023-06-10T06:47:23;11.30;;;6.00;;
57309;SDS011;43153;50.984;18.204;2023-06-10T06:49:53;10.60;;;5.90;;
57309;SDS011;43153;50.984;18.204;2023-06-10T06:52:20;10.70;;;5.20;;
57309;SDS011;43153;50.984;18.204;2023-06-10T06:54:48;10.50;;;5.40;;
57309;SDS011;43153;50.984;18.204;2023-06-10T06:57:13;8.10;;;4.90;;
57309;SDS011;43153;50.984;18.204;2023-06-10T06:59:39;11.30;;;5.90;;
57309;SDS011;43153;50.984;18.204;2023-06-10T07:02:05;10.00;;;6.10;;
57309;SDS011;43153;50.984;18.204;2023-06-10T07:04:32;9.50;;;6.60;;
57309;SDS011;43153;50.984;18.204;2023-06-10T07:06:58;10.40;;;6.10;;
57309;SDS011;43153;50.984;18.204;2023-06-10T07:09:26;12.10;;;6.70;;
57309;SDS011;43153;50.984;18.204;2023-06-10T07:11:55;9.50;;;6.30;;
57309;SDS011;43153;50.984;18.204;2023-06-10T07:14:23;9.30;;;6.30;;
57309;SDS011;43153;50.984;18.204;2023-06-10T07:16:51;15.50;;;6.70;;
57309;SDS011;43153;50.984;18.204;2023-06-10T07:19:20;9.90;;;6.40;;
57309;SDS011;43153;50.984;18.204;2023-06-10T07:21:47;11.60;;;6.80;;
57309;SDS011;43153;50.984;18.204;2023-06-10T07:24:13;10.90;;;6.70;;
57309;SDS011;43153;50.984;18.204;2023-06-10T07:26:45;11.70;;;6.90;;
57309;SDS011;43153;50.984;18.204;2023-06-10T07:29:13;14.10;;;7.60;;
57309;SDS011;43153;50.984;18.204;2023-06-10T07:31:40;11.90;;;7.00;;
57309;SDS011;43153;50.984;18.204;2023-06-10T07:34:12;13.00;;;7.10;;
57309;SDS011;43153;50.984;18.204;2023-06-10T07:36:42;13.80;;;7.10;;
57309;SDS011;43153;50.984;18.204;2023-06-10T07:39:15;9.80;;;6.60;;
57309;SDS011;43153;50.984;18.204;2023-06-10T07:41:42;10.50;;;6.40;;
57309;SDS011;43153;50.984;18.204;2023-06-10T07:44:08;11.10;;;6.50;;
57309;SDS011;43153;50.984;18.204;2023-06-10T07:46:34;11.30;;;6.60;;
57309;SDS011;43153;50.984;18.204;2023-06-10T07:49:01;10.40;;;6.20;;
57309;SDS011;43153;50.984;18.204;2023-06-10T07:51:27;11.10;;;7.00;;
57309;SDS011;43153;50.984;18.204;2023-06-10T07:53:53;15.70;;;7.00;;
57309;SDS011;43153;50.984;18.204;2023-06-10T07:56:19;14.20;;;7.10;;
57309;SDS011;43153;50.984;18.204;2023-06-10T07:58:47;14.10;;;7.70;;
57309;SDS011;43153;50.984;18.204;2023-06-10T08:01:13;15.20;;;7.30;;
57309;SDS011;43153;50.984;18.204;2023-06-10T08:03:39;15.80;;;8.00;;
57309;SDS011;43153;50.984;18.204;2023-06-10T08:06:07;10.50;;;7.20;;
57309;SDS011;43153;50.984;18.204;2023-06-10T08:08:37;9.70;;;6.90;;
57309;SDS011;43153;50.984;18.204;2023-06-10T08:11:08;13.70;;;6.90;;
57309;SDS011;43153;50.984;18.204;2023-06-10T08:13:38;11.20;;;6.90;;
57309;SDS011;43153;50.984;18.204;2023-06-10T08:16:05;12.70;;;7.40;;
57309;SDS011;43153;50.984;18.204;2023-06-10T08:18:32;11.60;;;7.60;;
57309;SDS011;43153;50.984;18.204;2023-06-10T08:21:03;12.60;;;6.50;;
57309;SDS011;43153;50.984;18.204;2023-06-10T08:26:00;9.40;;;5.50;;
57309;SDS011;43153;50.984;18.204;2023-06-10T08:28:26;9.60;;;4.60;;
57309;SDS011;43153;50.984;18.204;2023-06-10T08:30:53;9.30;;;5.10;;
57309;SDS011;43153;50.984;18.204;2023-06-10T08:33:20;14.10;;;5.00;;
57309;SDS011;43153;50.984;18.204;2023-06-10T08:35:47;8.60;;;4.70;;
57309;SDS011;43153;50.984;18.204;2023-06-10T08:38:17;7.30;;;3.90;;
57309;SDS011;43153;50.984;18.204;2023-06-10T08:40:43;10.40;;;4.30;;
57309;SDS011;43153;50.984;18.204;2023-06-10T08:43:14;6.20;;;3.80;;
57309;SDS011;43153;50.984;18.204;2023-06-10T08:45:43;10.20;;;3.70;;
57309;SDS011;43153;50.984;18.204;2023-06-10T08:48:12;7.50;;;3.60;;
57309;SDS011;43153;50.984;18.204;2023-06-10T08:50:43;8.20;;;3.50;;
57309;SDS011;43153;50.984;18.204;2023-06-10T09:33:14;11.00;;;4.40;;
57309;SDS011;43153;50.984;18.204;2023-06-10T09:35:46;8.20;;;4.10;;
57309;SDS011;43153;50.984;18.204;2023-06-10T09:38:19;10.80;;;4.60;;
57309;SDS011;43153;50.984;18.204;2023-06-10T09:40:49;9.70;;;4.80;;
57309;SDS011;43153;50.984;18.204;2023-06-10T09:43:19;8.80;;;4.90;;
57309;SDS011;43153;50.984;18.204;2023-06-10T09:45:55;9.20;;;5.10;;
57309;SDS011;43153;50.984;18.204;2023-06-10T09:48:22;10.00;;;5.40;;
57309;SDS011;43153;50.984;18.204;2023-06-10T09:50:48;10.20;;;5.30;;
57309;SDS011;43153;50.984;18.204;2023-06-10T09:53:18;8.70;;;5.10;;
57309;SDS011;43153;50.984;18.204;2023-06-10T09:55:45;10.50;;;5.60;;
57309;SDS011;43153;50.984;18.204;2023-06-10T09:58:12;9.10;;;5.90;;
57309;SDS011;43153;50.984;18.204;2023-06-10T10:00:38;8.60;;;5.80;;
57309;SDS011;43153;50.984;18.204;2023-06-10T10:03:04;9.20;;;5.80;;
57309;SDS011;43153;50.984;18.204;2023-06-10T10:05:33;10.00;;;5.90;;
57309;SDS011;43153;50.984;18.204;2023-06-10T10:08:00;10.80;;;5.50;;
57309;SDS011;43153;50.984;18.204;2023-06-10T10:10:27;12.60;;;6.50;;
57309;SDS011;43153;50.984;18.204;2023-06-10T10:12:54;11.40;;;5.90;;
57309;SDS011;43153;50.984;18.204;2023-06-10T10:15:21;8.70;;;6.20;;
57309;SDS011;43153;50.984;18.204;2023-06-10T10:20:29;10.20;;;5.50;;
57309;SDS011;43153;50.984;18.204;2023-06-10T10:23:01;10.40;;;6.00;;
57309;SDS011;43153;50.984;18.204;2023-06-10T10:25:35;10.40;;;5.60;;
57309;SDS011;43153;50.984;18.204;2023-06-10T10:30:40;13.00;;;6.80;;
57309;SDS011;43153;50.984;18.204;2023-06-10T10:33:09;11.60;;;6.90;;
57309;SDS011;43153;50.984;18.204;2023-06-10T10:35:39;12.70;;;6.70;;
57309;SDS011;43153;50.984;18.204;2023-06-10T10:38:05;12.40;;;6.50;;
57309;SDS011;43153;50.984;18.204;2023-06-10T10:40:34;14.70;;;6.70;;
57309;SDS011;43153;50.984;18.204;2023-06-10T10:43:01;11.90;;;6.00;;
57309;SDS011;43153;50.984;18.204;2023-06-10T10:45:28;10.60;;;6.60;;
57309;SDS011;43153;50.984;18.204;2023-06-10T10:47:56;9.60;;;6.20;;
57309;SDS011;43153;50.984;18.204;2023-06-10T10:50:22;9.90;;;6.00;;
57309;SDS011;43153;50.984;18.204;2023-06-10T10:52:55;9.40;;;7.30;;
57309;SDS011;43153;50.984;18.204;2023-06-10T10:55:25;11.20;;;6.40;;
57309;SDS011;43153;50.984;18.204;2023-06-10T10:57:59;12.80;;;6.40;;
57309;SDS011;43153;50.984;18.204;2023-06-10T11:00:32;10.90;;;6.90;;
57309;SDS011;43153;50.984;18.204;2023-06-10T11:03:05;12.50;;;6.90;;
57309;SDS011;43153;50.984;18.204;2023-06-10T11:05:42;11.60;;;7.40;;
57309;SDS011;43153;50.984;18.204;2023-06-10T11:10:54;13.70;;;6.90;;
57309;SDS011;43153;50.984;18.204;2023-06-10T11:13:22;11.70;;;7.80;;
57309;SDS011;43153;50.984;18.204;2023-06-10T11:15:50;9.20;;;6.40;;
57309;SDS011;43153;50.984;18.204;2023-06-10T11:20:57;11.10;;;6.60;;
57309;SDS011;43153;50.984;18.204;2023-06-10T11:23:34;8.50;;;6.00;;
57309;SDS011;43153;50.984;18.204;2023-06-10T11:26:21;9.30;;;6.20;;
57309;SDS011;43153;50.984;18.204;2023-06-10T11:33:59;9.30;;;5.20;;
57309;SDS011;43153;50.984;18.204;2023-06-10T11:36:27;9.40;;;5.10;;
57309;SDS011;43153;50.984;18.204;2023-06-10T11:38:56;12.50;;;5.80;;
57309;SDS011;43153;50.984;18.204;2023-06-10T11:41:24;9.90;;;5.60;;
57309;SDS011;43153;50.984;18.204;2023-06-10T11:43:55;9.20;;;5.40;;
57309;SDS011;43153;50.984;18.204;2023-06-10T11:46:22;9.70;;;6.10;;
57309;SDS011;43153;50.984;18.204;2023-06-10T11:48:52;9.50;;;5.70;;
57309;SDS011;43153;50.984;18.204;2023-06-10T11:51:19;10.00;;;5.50;;
57309;SDS011;43153;50.984;18.204;2023-06-10T11:53:50;9.20;;;5.50;;
57309;SDS011;43153;50.984;18.204;2023-06-10T11:56:22;9.20;;;4.60;;
57309;SDS011;43153;50.984;18.204;2023-06-10T11:58:52;8.20;;;4.70;;
57309;SDS011;43153;50.984;18.204;2023-06-10T12:01:22;9.60;;;5.50;;
57309;SDS011;43153;50.984;18.204;2023-06-10T12:04:08;8.70;;;4.70;;
57309;SDS011;43153;50.984;18.204;2023-06-10T12:06:40;8.50;;;5.30;;
57309;SDS011;43153;50.984;18.204;2023-06-10T12:09:18;8.50;;;4.70;;
57309;SDS011;43153;50.984;18.204;2023-06-10T12:11:52;9.30;;;4.40;;
57309;SDS011;43153;50.984;18.204;2023-06-10T12:17:18;7.20;;;4.10;;
57309;SDS011;43153;50.984;18.204;2023-06-10T12:20:07;9.30;;;4.30;;
57309;SDS011;43153;50.984;18.204;2023-06-10T12:25:04;7.30;;;4.20;;
57309;SDS011;43153;50.984;18.204;2023-06-10T12:27:35;5.40;;;3.20;;
57309;SDS011;43153;50.984;18.204;2023-06-10T12:30:04;7.70;;;2.90;;
57309;SDS011;43153;50.984;18.204;2023-06-10T12:32:40;7.50;;;2.80;;
57309;SDS011;43153;50.984;18.204;2023-06-10T12:35:08;7.20;;;3.00;;
57309;SDS011;43153;50.984;18.204;2023-06-10T12:37:35;8.90;;;3.40;;
57309;SDS011;43153;50.984;18.204;2023-06-10T12:40:04;7.60;;;3.80;;
57309;SDS011;43153;50.984;18.204;2023-06-10T12:42:37;10.20;;;4.00;;
57309;SDS011;43153;50.984;18.204;2023-06-10T12:45:03;7.30;;;3.10;;
57309;SDS011;43153;50.984;18.204;2023-06-10T12:47:34;7.50;;;2.70;;
57309;SDS011;43153;50.984;18.204;2023-06-10T12:50:01;7.90;;;3.00;;
57309;SDS011;43153;50.984;18.204;2023-06-10T12:52:29;9.10;;;3.20;;
57309;SDS011;43153;50.984;18.204;2023-06-10T12:54:56;6.70;;;2.90;;
57309;SDS011;43153;50.984;18.204;2023-06-10T12:57:24;7.50;;;3.20;;
57309;SDS011;43153;50.984;18.204;2023-06-10T12:59:52;6.10;;;2.90;;
57309;SDS011;43153;50.984;18.204;2023-06-10T13:02:21;9.90;;;2.60;;
57309;SDS011;43153;50.984;18.204;2023-06-10T13:04:49;6.00;;;2.90;;
57309;SDS011;43153;50.984;18.204;2023-06-10T13:07:16;5.30;;;2.50;;
57309;SDS011;43153;50.984;18.204;2023-06-10T13:09:43;5.40;;;3.00;;
57309;SDS011;43153;50.984;18.204;2023-06-10T13:12:09;10.40;;;3.00;;
57309;SDS011;43153;50.984;18.204;2023-06-10T13:14:37;7.70;;;2.30;;
57309;SDS011;43153;50.984;18.204;2023-06-10T13:17:05;5.80;;;2.90;;
57309;SDS011;43153;50.984;18.204;2023-06-10T13:19:34;6.70;;;2.30;;
57309;SDS011;43153;50.984;18.204;2023-06-10T13:22:00;5.90;;;2.00;;
57309;SDS011;43153;50.984;18.204;2023-06-10T13:24:27;6.80;;;2.70;;
57309;SDS011;43153;50.984;18.204;2023-06-10T13:26:56;7.40;;;3.00;;
57309;SDS011;43153;50.984;18.204;2023-06-10T13:29:22;6.50;;;2.60;;
57309;SDS011;43153;50.984;18.204;2023-06-10T13:31:48;7.80;;;2.20;;
57309;SDS011;43153;50.984;18.204;2023-06-10T13:34:16;9.20;;;2.70;;
57309;SDS011;43153;50.984;18.204;2023-06-10T13:36:44;8.30;;;2.40;;
57309;SDS011;43153;50.984;18.204;2023-06-10T13:39:12;8.50;;;2.20;;
57309;SDS011;43153;50.984;18.204;2023-06-10T13:41:41;6.10;;;2.40;;
57309;SDS011;43153;50.984;18.204;2023-06-10T13:44:09;9.20;;;2.70;;
57309;SDS011;43153;50.984;18.204;2023-06-10T13:46:35;8.10;;;2.50;;
57309;SDS011;43153;50.984;18.204;2023-06-10T13:49:02;4.90;;;2.20;;
57309;SDS011;43153;50.984;18.204;2023-06-10T13:51:29;4.30;;;1.90;;
57309;SDS011;43153;50.984;18.204;2023-06-10T13:53:56;5.50;;;2.30;;
57309;SDS011;43153;50.984;18.204;2023-06-10T13:56:25;12.00;;;3.10;;
57309;SDS011;43153;50.984;18.204;2023-06-10T13:58:52;6.80;;;2.30;;
57309;SDS011;43153;50.984;18.204;2023-06-10T14:01:18;6.50;;;2.00;;
57309;SDS011;43153;50.984;18.204;2023-06-10T14:03:44;13.30;;;3.50;;
57309;SDS011;43153;50.984;18.204;2023-06-10T14:06:11;6.70;;;2.50;;
57309;SDS011;43153;50.984;18.204;2023-06-10T14:08:44;6.50;;;2.30;;
57309;SDS011;43153;50.984;18.204;2023-06-10T14:11:12;7.90;;;2.30;;
57309;SDS011;43153;50.984;18.204;2023-06-10T14:13:40;9.40;;;2.20;;
57309;SDS011;43153;50.984;18.204;2023-06-10T14:16:11;7.00;;;2.40;;
57309;SDS011;43153;50.984;18.204;2023-06-10T14:18:39;14.70;;;2.70;;
57309;SDS011;43153;50.984;18.204;2023-06-10T14:21:05;7.90;;;2.80;;
57309;SDS011;43153;50.984;18.204;2023-06-10T14:23:38;6.50;;;2.30;;
57309;SDS011;43153;50.984;18.204;2023-06-10T14:26:10;5.20;;;2.10;;
57309;SDS011;43153;50.984;18.204;2023-06-10T14:28:37;7.60;;;2.60;;
57309;SDS011;43153;50.984;18.204;2023-06-10T14:31:04;5.90;;;2.50;;
57309;SDS011;43153;50.984;18.204;2023-06-10T14:33:34;9.00;;;2.50;;
57309;SDS011;43153;50.984;18.204;2023-06-10T14:36:03;8.40;;;2.20;;
57309;SDS011;43153;50.984;18.204;2023-06-10T14:38:30;5.60;;;2.40;;
57309;SDS011;43153;50.984;18.204;2023-06-10T14:40:56;9.00;;;2.50;;
57309;SDS011;43153;50.984;18.204;2023-06-10T14:43:24;7.80;;;2.50;;
57309;SDS011;43153;50.984;18.204;2023-06-10T14:45:51;5.50;;;2.40;;
57309;SDS011;43153;50.984;18.204;2023-06-10T14:48:21;9.30;;;2.50;;
57309;SDS011;43153;50.984;18.204;2023-06-10T14:50:48;8.60;;;2.70;;
57309;SDS011;43153;50.984;18.204;2023-06-10T14:53:18;8.00;;;2.50;;
57309;SDS011;43153;50.984;18.204;2023-06-10T14:55:44;8.20;;;2.50;;
57309;SDS011;43153;50.984;18.204;2023-06-10T14:58:13;6.80;;;2.60;;
57309;SDS011;43153;50.984;18.204;2023-06-10T15:00:40;6.50;;;2.40;;
57309;SDS011;43153;50.984;18.204;2023-06-10T15:03:09;6.70;;;2.50;;
57309;SDS011;43153;50.984;18.204;2023-06-10T15:05:34;6.60;;;2.20;;
57309;SDS011;43153;50.984;18.204;2023-06-10T15:08:03;8.30;;;2.60;;
57309;SDS011;43153;50.984;18.204;2023-06-10T15:10:34;8.50;;;2.60;;
57309;SDS011;43153;50.984;18.204;2023-06-10T15:13:02;6.80;;;2.20;;
57309;SDS011;43153;50.984;18.204;2023-06-10T15:15:32;6.80;;;2.20;;
57309;SDS011;43153;50.984;18.204;2023-06-10T15:18:01;9.00;;;2.30;;
57309;SDS011;43153;50.984;18.204;2023-06-10T15:20:27;9.50;;;2.30;;
57309;SDS011;43153;50.984;18.204;2023-06-10T16:02:32;7.50;;;2.50;;
57309;SDS011;43153;50.984;18.204;2023-06-10T16:05:00;6.20;;;2.00;;
57309;SDS011;43153;50.984;18.204;2023-06-10T16:07:26;5.10;;;2.20;;
57309;SDS011;43153;50.984;18.204;2023-06-10T16:09:52;6.10;;;2.40;;
57309;SDS011;43153;50.984;18.204;2023-06-10T16:12:21;5.30;;;2.20;;
57309;SDS011;43153;50.984;18.204;2023-06-10T16:14:47;6.20;;;2.50;;
57309;SDS011;43153;50.984;18.204;2023-06-10T16:17:13;6.70;;;2.20;;
57309;SDS011;43153;50.984;18.204;2023-06-10T16:19:41;8.30;;;2.70;;
57309;SDS011;43153;50.984;18.204;2023-06-10T16:22:08;8.40;;;2.80;;
57309;SDS011;43153;50.984;18.204;2023-06-10T16:24:36;6.40;;;2.50;;
57309;SDS011;43153;50.984;18.204;2023-06-10T16:27:01;10.10;;;2.90;;
57309;SDS011;43153;50.984;18.204;2023-06-10T16:29:33;12.40;;;2.70;;
57309;SDS011;43153;50.984;18.204;2023-06-10T16:32:00;6.80;;;2.50;;
57309;SDS011;43153;50.984;18.204;2023-06-10T16:34:26;6.30;;;2.70;;
57309;SDS011;43153;50.984;18.204;2023-06-10T16:36:54;8.80;;;2.80;;
57309;SDS011;43153;50.984;18.204;2023-06-10T16:39:23;6.10;;;2.80;;
57309;SDS011;43153;50.984;18.204;2023-06-10T16:41:50;6.00;;;2.70;;
57309;SDS011;43153;50.984;18.204;2023-06-10T16:44:16;8.90;;;2.50;;
57309;SDS011;43153;50.984;18.204;2023-06-10T16:46:42;7.80;;;2.60;;
57309;SDS011;43153;50.984;18.204;2023-06-10T16:49:08;8.10;;;2.90;;
57309;SDS011;43153;50.984;18.204;2023-06-10T16:51:35;8.20;;;3.00;;
57309;SDS011;43153;50.984;18.204;2023-06-10T16:54:00;7.30;;;2.90;;
57309;SDS011;43153;50.984;18.204;2023-06-10T16:56:27;8.20;;;3.30;;
57309;SDS011;43153;50.984;18.204;2023-06-10T16:58:53;7.50;;;3.00;;
57309;SDS011;43153;50.984;18.204;2023-06-10T17:01:23;9.40;;;2.80;;
57309;SDS011;43153;50.984;18.204;2023-06-10T17:03:51;6.30;;;2.80;;
57309;SDS011;43153;50.984;18.204;2023-06-10T17:06:19;7.80;;;2.60;;